createdAt,value
2019-03-26T00:00:37.205Z,99369.78
2019-03-26T00:03:06.085Z,99374.38
2019-03-26T00:05:35.255Z,99376.37
2019-03-26T00:08:04.101Z,99382.95
2019-03-26T00:10:32.907Z,99389.67
2019-03-26T00:13:02.196Z,99397.14
2019-03-26T00:15:31.051Z,99395.11
2019-03-26T00:17:59.844Z,99396.58
2019-03-26T00:20:28.754Z,99387.34
2019-03-26T00:22:57.648Z,99395.33
2019-03-26T00:25:26.442Z,99399.53
2019-03-26T00:27:55.369Z,99409.83
2019-03-26T00:30:24.219Z,99411.44
2019-03-26T00:32:53.059Z,99414.77
2019-03-26T00:35:21.822Z,99410.72
2019-03-26T00:37:50.617Z,99413.64
2019-03-26T00:40:19.394Z,99416.94
2019-03-26T00:42:48.184Z,99423.99
2019-03-26T00:45:16.979Z,99420.05
2019-03-26T00:47:45.795Z,99431.49
2019-03-26T00:50:14.656Z,99432.05
2019-03-26T00:52:43.766Z,99433.53
2019-03-26T00:55:22.592Z,99431.64
2019-03-26T00:57:43.470Z,99442.11
2019-03-26T01:00:12.441Z,99441.67
2019-03-26T01:02:41.316Z,99437.88
2019-03-26T01:05:10.098Z,99437.63
2019-03-26T01:07:39.321Z,99444.66
2019-03-26T01:10:20.402Z,99442.42
2019-03-26T01:12:49.299Z,99443.82
2019-03-26T01:15:18.490Z,99444.78
2019-03-26T01:17:47.308Z,99445.44
2019-03-26T01:20:16.098Z,99450.19
2019-03-26T01:22:44.877Z,99458.27
2019-03-26T01:25:13.709Z,99459.31
2019-03-26T01:27:42.478Z,99457.31
2019-03-26T01:30:11.252Z,99454.42
2019-03-26T01:32:40.232Z,99463.38
2019-03-26T01:35:09.114Z,99466.58
2019-03-26T01:37:38.217Z,99459.41
2019-03-26T01:40:07.024Z,99453.70
2019-03-26T01:42:35.817Z,99447.91
2019-03-26T01:45:05.583Z,99447.42
2019-03-26T01:47:34.509Z,99448.30
2019-03-26T01:50:03.305Z,99449.02
2019-03-26T01:52:32.092Z,99444.86
2019-03-26T01:55:00.914Z,99446.14
2019-03-26T01:57:29.702Z,99449.18
2019-03-26T01:59:59.715Z,99460.53
2019-03-26T02:02:28.742Z,99456.92
2019-03-26T02:05:00.362Z,99454.13
2019-03-26T02:07:28.853Z,99444.54
2019-03-26T02:09:57.742Z,99457.50
2019-03-26T02:12:26.593Z,99455.80
2019-03-26T02:14:55.769Z,99460.14
2019-03-26T02:17:24.911Z,99460.63
2019-03-26T02:19:53.719Z,99472.70
2019-03-26T02:22:22.585Z,99479.38
2019-03-26T02:24:51.474Z,99479.59
2019-03-26T02:27:20.387Z,99479.56
2019-03-26T02:29:49.168Z,99480.92
2019-03-26T02:32:18.058Z,99484.98
2019-03-26T02:34:48.357Z,99486.42
2019-03-26T02:37:17.256Z,99484.00
2019-03-26T02:39:46.112Z,99485.48
2019-03-26T02:42:14.973Z,99484.00
2019-03-26T02:44:44.920Z,99484.39
2019-03-26T02:47:13.742Z,99475.73
2019-03-26T02:49:42.573Z,99476.27
2019-03-26T02:52:12.803Z,99476.67
2019-03-26T02:54:42.827Z,99480.72
2019-03-26T02:57:11.650Z,99479.98
2019-03-26T02:59:40.556Z,99480.89
2019-03-26T03:02:09.492Z,99482.41
2019-03-26T03:04:38.331Z,99484.77
2019-03-26T03:07:07.153Z,99491.38
2019-03-26T03:09:36.372Z,99490.79
2019-03-26T03:12:05.174Z,99498.44
2019-03-26T03:14:34.666Z,99498.23
2019-03-26T03:17:03.548Z,99500.00
2019-03-26T03:19:32.279Z,99503.70
2019-03-26T03:22:01.068Z,99509.95
2019-03-26T03:24:29.811Z,99510.71
2019-03-26T03:26:58.674Z,99512.13
2019-03-26T03:29:27.513Z,99514.93
2019-03-26T03:31:57.015Z,99514.37
2019-03-26T03:34:26.234Z,99515.98
2019-03-26T03:36:55.483Z,99514.04
2019-03-26T03:39:24.642Z,99520.80
2019-03-26T03:41:53.697Z,99518.52
2019-03-26T03:44:22.527Z,99521.81
2019-03-26T03:46:51.263Z,99524.96
2019-03-26T03:49:21.363Z,99521.50
2019-03-26T03:51:51.067Z,99525.83
2019-03-26T03:54:19.895Z,99522.83
2019-03-26T03:56:48.719Z,99529.27
2019-03-26T03:59:17.713Z,99538.10
2019-03-26T04:01:46.542Z,99545.84
2019-03-26T04:04:15.423Z,99539.09
2019-03-26T04:06:44.203Z,99546.00
2019-03-26T04:09:13.715Z,99554.84
2019-03-26T04:11:43.257Z,99553.20
2019-03-26T04:14:12.108Z,99558.02
2019-03-26T04:16:40.875Z,99559.06
2019-03-26T04:19:09.685Z,99556.19
2019-03-26T04:21:38.750Z,99558.09
2019-03-26T04:24:07.539Z,99560.11
2019-03-26T04:26:36.353Z,99559.70
2019-03-26T04:29:05.151Z,99557.59
2019-03-26T04:31:34.038Z,99564.10
2019-03-26T04:34:02.834Z,99570.03
2019-03-26T04:36:31.635Z,99566.81
2019-03-26T04:39:01.099Z,99566.47
2019-03-26T04:41:30.087Z,99566.42
2019-03-26T04:43:58.938Z,99566.13
2019-03-26T04:46:27.760Z,99567.45
2019-03-26T04:48:56.917Z,99568.47
2019-03-26T04:51:25.717Z,99573.45
2019-03-26T04:53:54.435Z,99574.27
2019-03-26T04:56:23.325Z,99571.07
2019-03-26T04:58:52.537Z,99573.27
2019-03-26T05:01:21.703Z,99568.09
2019-03-26T05:03:50.897Z,99565.56
2019-03-26T05:06:20.105Z,99575.32
2019-03-26T05:08:48.923Z,99574.96
2019-03-26T05:11:17.763Z,99575.13
2019-03-26T05:13:46.640Z,99579.66
2019-03-26T05:16:15.738Z,99571.34
2019-03-26T05:18:44.573Z,99585.27
2019-03-26T05:21:13.310Z,99577.87
2019-03-26T05:23:42.439Z,99583.77
2019-03-26T05:26:11.594Z,99583.67
2019-03-26T05:28:41.168Z,99587.03
2019-03-26T05:31:09.965Z,99583.14
2019-03-26T05:33:38.859Z,99586.31
2019-03-26T05:36:07.954Z,99590.98
2019-03-26T05:38:37.060Z,99593.02
2019-03-26T05:41:05.918Z,99593.18
2019-03-26T05:43:34.709Z,99598.98
2019-03-26T05:46:03.599Z,99606.80
2019-03-26T05:48:32.409Z,99610.59
2019-03-26T05:51:01.269Z,99621.11
2019-03-26T05:53:30.117Z,99618.50
2019-03-26T05:55:59.358Z,99619.91
2019-03-26T05:58:28.137Z,99621.73
2019-03-26T06:00:57.062Z,99624.77
2019-03-26T06:03:25.858Z,99619.13
2019-03-26T06:05:54.776Z,99619.03
2019-03-26T06:08:23.896Z,99628.17
2019-03-26T06:10:52.957Z,99627.13
2019-03-26T06:13:22.423Z,99631.21
2019-03-26T06:15:51.596Z,99632.37
2019-03-26T06:18:21.851Z,99631.25
2019-03-26T06:20:50.682Z,99636.37
2019-03-26T06:23:21.240Z,99636.48
2019-03-26T06:25:50.030Z,99636.98
2019-03-26T06:28:18.852Z,99636.40
2019-03-26T06:30:47.812Z,99632.59
2019-03-26T06:33:17.178Z,99642.10
2019-03-26T06:35:46.081Z,99647.20
2019-03-26T06:38:15.226Z,99642.44
2019-03-26T06:40:45.829Z,99650.90
2019-03-26T06:43:14.651Z,99654.20
2019-03-26T06:45:43.579Z,99656.26
2019-03-26T06:48:12.390Z,99658.23
2019-03-26T06:50:41.651Z,99659.72
2019-03-26T06:53:10.526Z,99662.73
2019-03-26T06:55:40.666Z,99670.18
2019-03-26T06:58:10.607Z,99672.77
2019-03-26T07:00:39.464Z,99671.52
2019-03-26T07:03:08.276Z,99672.58
2019-03-26T07:05:37.234Z,99676.09
2019-03-26T07:08:06.071Z,99675.55
2019-03-26T07:10:34.854Z,99672.81
2019-03-26T07:13:03.678Z,99689.00
2019-03-26T07:15:32.467Z,99681.40
2019-03-26T07:18:01.751Z,99680.59
2019-03-26T07:20:31.014Z,99674.81
2019-03-26T07:23:00.063Z,99686.83
2019-03-26T07:25:28.879Z,99693.98
2019-03-26T07:27:57.483Z,99692.05
2019-03-26T07:30:40.104Z,99690.44
2019-03-26T07:33:09.425Z,99690.32
2019-03-26T07:35:38.527Z,99691.44
2019-03-26T07:38:07.421Z,99694.52
2019-03-26T07:40:37.601Z,99686.20
2019-03-26T07:43:07.038Z,99694.84
2019-03-26T07:45:35.891Z,99697.48
2019-03-26T07:48:04.804Z,99699.39
2019-03-26T07:50:33.749Z,99708.82
2019-03-26T07:53:02.979Z,99711.16
2019-03-26T07:55:31.946Z,99705.92
2019-03-26T07:58:00.818Z,99696.77
2019-03-26T08:00:34.328Z,99696.17
2019-03-26T08:03:03.799Z,99698.30
2019-03-26T08:05:32.721Z,99696.54
2019-03-26T08:08:01.447Z,99702.88
2019-03-26T08:10:30.345Z,99701.59
2019-03-26T08:12:59.219Z,99713.03
2019-03-26T08:15:28.232Z,99699.31
2019-03-26T08:17:58.112Z,99706.70
2019-03-26T08:20:26.960Z,99706.27
2019-03-26T08:22:55.832Z,99704.28
2019-03-26T08:25:24.806Z,99711.52
2019-03-26T08:27:53.597Z,99702.23
2019-03-26T08:30:22.461Z,99701.02
2019-03-26T08:32:51.519Z,99705.22
2019-03-26T08:35:20.542Z,99699.56
2019-03-26T08:37:49.363Z,99703.80
2019-03-26T08:40:18.307Z,99707.48
2019-03-26T08:42:47.178Z,99704.64
2019-03-26T08:45:16.032Z,99703.95
2019-03-26T08:47:45.197Z,99709.83
2019-03-26T08:50:14.209Z,99704.47
2019-03-26T08:52:44.636Z,99707.16
2019-03-26T08:55:13.590Z,99712.03
2019-03-26T08:57:42.405Z,99711.25
2019-03-26T09:00:11.613Z,99714.28
2019-03-26T09:02:40.592Z,99721.30
2019-03-26T09:05:11.244Z,99721.02
2019-03-26T09:07:40.136Z,99731.97
2019-03-26T09:10:09.683Z,99729.91
2019-03-26T09:12:39.686Z,99735.30
2019-03-26T09:15:08.643Z,99728.05
2019-03-26T09:17:37.525Z,99729.67
2019-03-26T09:20:07.202Z,99734.77
2019-03-26T09:22:36.164Z,99729.52
2019-03-26T09:25:05.568Z,99728.53
2019-03-26T09:27:34.465Z,99726.81
2019-03-26T09:30:04.499Z,99729.27
2019-03-26T09:32:33.300Z,99726.13
2019-03-26T09:35:02.437Z,99727.88
2019-03-26T09:37:31.231Z,99736.24
2019-03-26T09:40:00.111Z,99730.69
2019-03-26T09:42:30.257Z,99737.16
2019-03-26T09:44:59.095Z,99742.87
2019-03-26T09:47:28.026Z,99742.37
2019-03-26T09:49:56.830Z,99748.23
2019-03-26T09:52:25.696Z,99747.20
2019-03-26T09:54:54.580Z,99747.88
2019-03-26T09:57:23.367Z,99753.59
2019-03-26T09:59:52.160Z,99752.95
2019-03-26T10:02:21.082Z,99765.38
2019-03-26T10:04:49.922Z,99761.00
2019-03-26T10:07:21.712Z,99763.86
2019-03-26T10:09:49.808Z,99764.16
2019-03-26T10:12:18.672Z,99759.94
2019-03-26T10:14:47.597Z,99762.06
2019-03-26T10:17:16.908Z,99761.42
2019-03-26T10:19:45.716Z,99758.25
2019-03-26T10:22:14.792Z,99756.30
2019-03-26T10:24:43.600Z,99751.86
2019-03-26T10:27:12.356Z,99750.06
2019-03-26T10:29:41.282Z,99761.80
2019-03-26T10:32:10.466Z,99751.66
2019-03-26T10:34:39.360Z,99746.94
2019-03-26T10:37:08.196Z,99744.09
2019-03-26T10:39:37.790Z,99751.60
2019-03-26T10:42:07.091Z,99757.14
2019-03-26T10:44:36.034Z,99738.88
2019-03-26T10:47:04.866Z,99744.36
2019-03-26T10:49:33.773Z,99738.66
2019-03-26T10:52:02.612Z,99734.72
2019-03-26T10:54:32.145Z,99737.42
2019-03-26T10:57:01.119Z,99740.23
2019-03-26T10:59:29.950Z,99728.48
2019-03-26T11:02:00.030Z,99720.66
2019-03-26T11:04:29.629Z,99724.13
2019-03-26T11:06:58.451Z,99717.05
2019-03-26T11:09:27.541Z,99714.86
2019-03-26T11:11:56.769Z,99716.53
2019-03-26T11:14:25.589Z,99719.16
2019-03-26T11:16:54.728Z,99715.67
2019-03-26T11:19:24.090Z,99722.03
2019-03-26T11:21:57.563Z,99706.88
2019-03-26T11:24:26.831Z,99698.84
2019-03-26T11:26:59.511Z,99701.67
2019-03-26T11:29:28.805Z,99702.23
2019-03-26T11:31:57.946Z,99701.28
2019-03-26T11:34:26.835Z,99698.98
2019-03-26T11:36:56.062Z,99707.14
2019-03-26T11:39:32.629Z,99701.00
2019-03-26T11:41:56.408Z,99702.47
2019-03-26T11:44:25.345Z,99703.27
2019-03-26T11:46:54.508Z,99718.09
2019-03-26T11:49:23.590Z,99708.34
2019-03-26T11:51:53.011Z,99702.61
2019-03-26T11:54:21.953Z,99708.55
2019-03-26T11:56:50.779Z,99708.16
2019-03-26T11:59:19.752Z,99696.12
2019-03-26T12:01:48.519Z,99693.72
2019-03-26T12:04:17.484Z,99694.87
2019-03-26T12:06:46.644Z,99695.92
2019-03-26T12:09:15.435Z,99695.39
2019-03-26T12:11:44.346Z,99695.06
2019-03-26T12:14:13.643Z,99691.36
2019-03-26T12:16:42.937Z,99688.47
2019-03-26T12:19:11.792Z,99680.23
2019-03-26T12:21:40.836Z,99685.16
2019-03-26T12:24:10.017Z,99682.09
2019-03-26T12:26:39.962Z,99678.66
2019-03-26T12:29:09.187Z,99679.23
2019-03-26T12:31:38.350Z,99669.80
2019-03-26T12:34:07.381Z,99669.77
2019-03-26T12:36:40.178Z,99663.11
2019-03-26T12:39:07.834Z,99665.45
2019-03-26T12:41:38.500Z,99667.84
2019-03-26T12:44:07.594Z,99664.13
2019-03-26T12:46:37.096Z,99666.28
2019-03-26T12:49:06.131Z,99673.02
2019-03-26T12:51:34.957Z,99666.77
2019-03-26T12:54:03.957Z,99664.25
2019-03-26T12:56:32.768Z,99668.12
2019-03-26T12:59:01.977Z,99663.26
2019-03-26T13:01:31.203Z,99661.51
2019-03-26T13:04:11.997Z,99651.58
2019-03-26T13:06:31.479Z,99657.08
2019-03-26T13:09:00.345Z,99651.34
2019-03-26T13:11:29.862Z,99651.08
2019-03-26T13:14:00.686Z,99657.37
2019-03-26T13:16:30.187Z,99647.48
2019-03-26T13:18:59.972Z,99655.55
2019-03-26T13:21:29.078Z,99654.11
2019-03-26T13:23:58.014Z,99643.05
2019-03-26T13:26:26.971Z,99642.80
2019-03-26T13:28:55.836Z,99631.47
2019-03-26T13:31:24.940Z,99631.27
2019-03-26T13:33:53.791Z,99630.20
2019-03-26T13:36:23.178Z,99628.83
2019-03-26T13:38:52.552Z,99625.08
2019-03-26T13:41:22.550Z,99628.64
2019-03-26T13:43:51.427Z,99621.80
2019-03-26T13:46:20.368Z,99618.22
2019-03-26T13:48:49.921Z,99621.94
2019-03-26T13:51:18.882Z,99620.35
2019-03-26T13:53:48.827Z,99631.12
2019-03-26T13:56:17.241Z,99607.81
2019-03-26T13:58:46.191Z,99607.41
2019-03-26T14:01:15.059Z,99599.66
2019-03-26T14:03:43.859Z,99597.52
2019-03-26T14:06:12.711Z,99607.63
2019-03-26T14:08:41.588Z,99596.36
2019-03-26T14:11:10.406Z,99590.58
2019-03-26T14:13:39.199Z,99591.81
2019-03-26T14:16:08.050Z,99592.01
2019-03-26T14:18:37.211Z,99593.84
2019-03-26T14:21:06.149Z,99601.73
2019-03-26T14:23:35.104Z,99599.98
2019-03-26T14:26:05.576Z,99594.11
2019-03-26T14:28:34.358Z,99592.23
2019-03-26T14:31:03.749Z,99593.94
2019-03-26T14:33:32.615Z,99594.64
2019-03-26T14:36:01.449Z,99593.87
2019-03-26T14:38:30.256Z,99583.28
2019-03-26T14:40:59.141Z,99582.92
2019-03-26T14:43:28.276Z,99582.66
2019-03-26T14:45:57.135Z,99590.26
2019-03-26T14:48:26.662Z,99585.95
2019-03-26T14:50:56.043Z,99582.14
2019-03-26T14:53:24.877Z,99584.76
2019-03-26T14:55:53.963Z,99578.27
2019-03-26T14:58:22.855Z,99586.94
2019-03-26T15:00:51.744Z,99586.39
2019-03-26T15:03:20.708Z,99593.42
2019-03-26T15:05:50.826Z,99594.46
2019-03-26T15:08:19.658Z,99588.50
2019-03-26T15:10:48.495Z,99581.85
2019-03-26T15:13:17.453Z,99587.61
2019-03-26T15:15:46.425Z,99586.94
2019-03-26T15:18:15.424Z,99592.00
2019-03-26T15:20:45.253Z,99605.06
2019-03-26T15:23:14.058Z,99596.95
2019-03-26T15:25:42.948Z,99601.77
2019-03-26T15:28:12.238Z,99605.16
2019-03-26T15:30:41.164Z,99603.45
2019-03-26T15:33:09.970Z,99609.45
2019-03-26T15:35:38.829Z,99605.36
2019-03-26T15:38:07.653Z,99603.97
2019-03-26T15:40:37.553Z,99616.95
2019-03-26T15:43:06.428Z,99607.94
2019-03-26T15:45:36.323Z,99610.10
2019-03-26T15:48:05.349Z,99611.55
2019-03-26T15:50:41.727Z,99611.30
2019-03-26T15:53:10.607Z,99614.88
2019-03-26T15:55:41.104Z,99617.86
2019-03-26T15:58:09.917Z,99626.55
2019-03-26T16:00:39.835Z,99617.83
2019-03-26T16:03:08.738Z,99623.86
2019-03-26T16:05:37.830Z,99616.77
2019-03-26T16:08:06.714Z,99632.61
2019-03-26T16:10:35.556Z,99623.59
2019-03-26T16:13:04.427Z,99620.11
2019-03-26T16:15:43.611Z,99615.87
2019-03-26T16:18:04.495Z,99620.51
2019-03-26T16:20:33.646Z,99618.83
2019-03-26T16:23:02.450Z,99619.59
2019-03-26T16:25:31.234Z,99623.73
2019-03-26T16:28:00.062Z,99626.84
2019-03-26T16:30:30.697Z,99623.62
2019-03-26T16:32:59.616Z,99622.72
2019-03-26T16:35:28.541Z,99637.25
2019-03-26T16:37:57.364Z,99637.94
2019-03-26T16:40:26.150Z,99636.34
2019-03-26T16:42:55.501Z,99641.55
2019-03-26T16:45:24.377Z,99649.36
2019-03-26T16:47:53.313Z,99652.90
2019-03-26T16:50:22.508Z,99653.69
2019-03-26T16:52:51.332Z,99656.73
2019-03-26T16:55:20.192Z,99654.69
2019-03-26T16:57:49.473Z,99656.42
2019-03-26T17:00:30.100Z,99659.38
2019-03-26T17:02:59.926Z,99661.42
2019-03-26T17:05:28.772Z,99663.03
2019-03-26T17:07:57.830Z,99659.16
2019-03-26T17:10:27.193Z,99658.61
2019-03-26T17:12:56.142Z,99656.72
2019-03-26T17:15:25.071Z,99660.70
2019-03-26T17:17:54.304Z,99666.25
2019-03-26T17:20:24.155Z,99664.14
2019-03-26T17:22:53.274Z,99671.52
2019-03-26T17:25:22.400Z,99669.83
2019-03-26T17:27:51.217Z,99666.55
2019-03-26T17:30:20.323Z,99658.37
2019-03-26T17:32:49.203Z,99663.98
2019-03-26T17:35:18.075Z,99671.78
2019-03-26T17:37:58.992Z,99673.20
2019-03-26T17:40:17.859Z,99672.14
2019-03-26T17:42:46.840Z,99678.98
2019-03-26T17:45:16.123Z,99680.78
2019-03-26T17:47:44.961Z,99676.02
2019-03-26T17:50:14.083Z,99686.50
2019-03-26T17:52:42.961Z,99684.62
2019-03-26T17:55:12.037Z,99679.50
2019-03-26T17:57:41.063Z,99679.06
2019-03-26T18:00:11.597Z,99679.50
2019-03-26T18:02:40.470Z,99683.50
2019-03-26T18:05:24.515Z,99690.73
2019-03-26T18:07:53.351Z,99691.62
2019-03-26T18:10:22.313Z,99692.59
2019-03-26T18:12:51.123Z,99684.93
2019-03-26T18:15:21.187Z,99692.79
2019-03-26T18:17:50.938Z,99698.14
2019-03-26T18:20:31.818Z,99701.03
2019-03-26T18:22:51.004Z,99697.80
2019-03-26T18:25:20.761Z,99700.30
2019-03-26T18:27:50.030Z,99704.70
2019-03-26T18:30:19.341Z,99703.72
2019-03-26T18:32:48.360Z,99706.27
2019-03-26T18:35:17.432Z,99701.59
2019-03-26T18:37:46.631Z,99706.93
2019-03-26T18:40:16.314Z,99705.98
2019-03-26T18:42:45.751Z,99699.69
2019-03-26T18:45:14.822Z,99702.27
2019-03-26T18:47:44.332Z,99704.08
2019-03-26T18:50:13.163Z,99702.38
2019-03-26T18:52:42.505Z,99717.86
2019-03-26T18:55:11.380Z,99719.32
2019-03-26T18:57:40.362Z,99717.41
2019-03-26T19:00:10.737Z,99713.47
2019-03-26T19:02:39.908Z,99710.63
2019-03-26T19:05:09.108Z,99710.68
2019-03-26T19:07:38.302Z,99712.67
2019-03-26T19:10:24.036Z,99709.34
2019-03-26T19:12:57.074Z,99707.98
2019-03-26T19:15:25.255Z,99712.63
2019-03-26T19:17:55.876Z,99711.02
2019-03-26T19:20:25.129Z,99708.66
2019-03-26T19:22:53.997Z,99707.12
2019-03-26T19:25:22.902Z,99705.88
2019-03-26T19:27:51.825Z,99707.98
2019-03-26T19:30:21.051Z,99705.83
2019-03-26T19:32:50.235Z,99709.02
2019-03-26T19:35:19.574Z,99710.89
2019-03-26T19:37:48.605Z,99717.98
2019-03-26T19:40:17.989Z,99720.72
2019-03-26T19:42:47.619Z,99723.64
2019-03-26T19:45:18.173Z,99723.98
2019-03-26T19:47:47.667Z,99714.95
2019-03-26T19:50:16.883Z,99727.13
2019-03-26T19:52:46.388Z,99722.08
2019-03-26T19:55:16.085Z,99728.16
2019-03-26T19:57:45.491Z,99724.47
2019-03-26T20:00:15.463Z,99722.63
2019-03-26T20:02:44.808Z,99723.77
2019-03-26T20:05:14.085Z,99725.27
2019-03-26T20:07:43.861Z,99722.14
2019-03-26T20:10:13.620Z,99720.18
2019-03-26T20:12:43.296Z,99721.08
2019-03-26T20:15:12.387Z,99723.64
2019-03-26T20:17:41.624Z,99724.33
2019-03-26T20:20:11.020Z,99724.88
2019-03-26T20:22:40.241Z,99721.81
2019-03-26T20:25:09.668Z,99729.94
2019-03-26T20:27:39.028Z,99730.95
2019-03-26T20:30:08.244Z,99732.08
2019-03-26T20:32:37.541Z,99724.70
2019-03-26T20:35:07.558Z,99727.77
2019-03-26T20:37:36.729Z,99727.33
2019-03-26T20:40:07.291Z,99729.45
2019-03-26T20:42:36.341Z,99728.94
2019-03-26T20:45:06.840Z,99731.22
2019-03-26T20:47:35.941Z,99732.17
2019-03-26T20:50:05.531Z,99729.77
2019-03-26T20:52:34.627Z,99732.44
2019-03-26T20:55:04.338Z,99733.31
2019-03-26T20:57:33.188Z,99734.34
2019-03-26T21:00:02.131Z,99730.94
2019-03-26T21:02:32.587Z,99740.16
2019-03-26T21:05:01.709Z,99731.27
2019-03-26T21:07:31.196Z,99727.86
2019-03-26T21:10:00.403Z,99728.27
2019-03-26T21:12:29.948Z,99739.42
2019-03-26T21:14:59.112Z,99737.01
2019-03-26T21:17:28.245Z,99737.19
2019-03-26T21:19:57.093Z,99738.84
2019-03-26T21:22:25.936Z,99744.77
2019-03-26T21:24:54.901Z,99750.44
2019-03-26T21:27:23.808Z,99743.77
2019-03-26T21:29:52.585Z,99752.22
2019-03-26T21:32:21.633Z,99758.01
2019-03-26T21:34:50.782Z,99755.48
2019-03-26T21:37:20.103Z,99747.94
2019-03-26T21:39:49.295Z,99760.78
2019-03-26T21:42:18.095Z,99756.40
2019-03-26T21:44:46.948Z,99756.55
2019-03-26T21:47:16.158Z,99754.45
2019-03-26T21:49:45.062Z,99752.19
2019-03-26T21:52:14.245Z,99749.33
2019-03-26T21:54:43.129Z,99748.71
2019-03-26T21:57:11.975Z,99752.16
2019-03-26T21:59:40.839Z,99754.72
2019-03-26T22:02:10.073Z,99759.11
2019-03-26T22:04:39.332Z,99754.94
2019-03-26T22:07:08.525Z,99766.53
2019-03-26T22:09:37.659Z,99766.06
2019-03-26T22:12:06.576Z,99763.31
2019-03-26T22:14:35.418Z,99767.89
2019-03-26T22:17:04.218Z,99770.55
2019-03-26T22:19:32.723Z,99774.69
2019-03-26T22:22:01.573Z,99771.80
2019-03-26T22:24:30.424Z,99766.27
2019-03-26T22:26:59.549Z,99767.27
2019-03-26T22:29:29.629Z,99766.38
2019-03-26T22:31:59.195Z,99767.38
2019-03-26T22:34:28.162Z,99761.52
2019-03-26T22:36:57.367Z,99761.33
2019-03-26T22:39:26.186Z,99766.97
2019-03-26T22:41:54.937Z,99764.27
2019-03-26T22:44:31.238Z,99764.43
2019-03-26T22:46:55.082Z,99764.81
2019-03-26T22:49:24.316Z,99762.14
2019-03-26T22:51:53.060Z,99760.67
2019-03-26T22:54:21.918Z,99754.56
2019-03-26T22:56:50.719Z,99760.89
2019-03-26T22:59:19.914Z,99765.41
2019-03-26T23:01:49.061Z,99770.09
2019-03-26T23:04:20.025Z,99772.81
2019-03-26T23:06:49.038Z,99767.16
2019-03-26T23:09:18.052Z,99763.13
2019-03-26T23:11:47.227Z,99762.73
2019-03-26T23:14:16.169Z,99769.97
2019-03-26T23:16:45.803Z,99757.45
2019-03-26T23:19:14.984Z,99764.59
2019-03-26T23:21:44.604Z,99767.88
2019-03-26T23:24:13.427Z,99771.83
2019-03-26T23:26:42.387Z,99773.28
2019-03-26T23:29:11.450Z,99764.64
2019-03-26T23:31:40.628Z,99771.98
2019-03-26T23:34:09.535Z,99768.58
2019-03-26T23:36:38.317Z,99777.68
2019-03-26T23:39:07.128Z,99773.47
2019-03-26T23:41:39.571Z,99773.80
2019-03-26T23:44:08.538Z,99763.34
2019-03-26T23:46:37.286Z,99770.75
2019-03-26T23:49:06.064Z,99766.80
2019-03-26T23:51:34.905Z,99769.45
2019-03-26T23:54:03.775Z,99770.91
2019-03-26T23:56:32.582Z,99762.39
2019-03-26T23:59:01.104Z,99765.25
